KCRE/CRE METAR and TAF weather

Enter ICAO airport designator
Station Type Date Time Source
KCRE METAR 2018/10/21 06:53 UTC NOAA

KCRE 210653Z AUTO 34010G16KT 290V010 10SM CLR 18/14 A2989 RMK AO1 SLP121 T01780139


Station Type Date Time Source
KCRE Decoded METAR 2018/10/21 06:53 UTC NOAA

N. MYRTLE BCH.GRAND STRAND, SC, United States (KCRE) 33-49N 078-43W 10M
Oct 21, 2018 - 02:53 AM EDT / 2018.10.21 0653 UTC
Wind: from the NNW (340 degrees) at 12 MPH (10 KT) gusting to 18 MPH (16 KT) (direction variable):0
Visibility: 10 mile(s):0
Sky conditions: clear
Temperature: 64.0 F (17.8 C)
Dew Point: 57.0 F (13.9 C)
Relative Humidity: 77%
Pressure (altimeter): 29.89 in. Hg (1012 hPa)
ob: KCRE 210653Z AUTO 34010G16KT 290V010 10SM CLR 18/14 A2989 RMK AO1 SLP121 T01780139
cycle: 7

Station Type Date Time Source
KCRE TAF 2018/10/21 06:24 UTC NOAA

TAF KCRE 210522Z 2106/2206 28008KT P6SM SKC
FM211200 33015G25KT P6SM SKC
FM211800 36014KT P6SM SKC
FM212000 02008KT P6SM SKC


Example: see airport list